createdAt,value
2019-01-05T00:02:17.830Z,101029.58
2019-01-05T00:04:47.785Z,101026.91
2019-01-05T00:07:34.947Z,101031.77
2019-01-05T00:10:05.349Z,101023.73
2019-01-05T00:12:32.838Z,101017.16
2019-01-05T00:15:17.974Z,101010.69
2019-01-05T00:17:49.397Z,101017.63
2019-01-05T00:20:16.871Z,101008.98
2019-01-05T00:23:01.112Z,101005.28
2019-01-05T00:25:45.358Z,101004.91
2019-01-05T00:28:28.633Z,101000.72
2019-01-05T00:31:07.827Z,100993.64
2019-01-05T00:33:50.160Z,101000.93
2019-01-05T00:36:23.238Z,100996.58
2019-01-05T00:38:53.189Z,100999.47
2019-01-05T00:41:36.301Z,100990.50
2019-01-05T00:44:09.308Z,100995.17
2019-01-05T00:46:53.544Z,100989.78
2019-01-05T00:49:23.369Z,100987.34
2019-01-05T00:51:52.672Z,100997.58
2019-01-05T00:54:20.973Z,100989.61
2019-01-05T00:56:48.451Z,101000.79
2019-01-05T00:59:32.586Z,100997.30
2019-01-05T01:02:16.885Z,100992.19
2019-01-05T01:04:47.922Z,100984.87
2019-01-05T01:07:20.995Z,100988.44
2019-01-05T01:10:03.372Z,100990.36
2019-01-05T01:12:32.747Z,100983.55
2019-01-05T01:15:06.047Z,100987.30
2019-01-05T01:17:34.745Z,100989.19
2019-01-05T01:20:07.599Z,100984.42
2019-01-05T01:22:50.166Z,100989.05
2019-01-05T01:25:23.184Z,100983.17
2019-01-05T01:27:56.437Z,100982.16
2019-01-05T01:30:29.560Z,100978.98
2019-01-05T01:33:02.612Z,100976.14
2019-01-05T01:35:40.132Z,100976.25
2019-01-05T01:38:30.469Z,100979.95
2019-01-05T01:41:08.770Z,100979.53
2019-01-05T01:43:41.882Z,100979.23
2019-01-05T01:46:13.905Z,100974.99
2019-01-05T01:48:57.124Z,100968.38
2019-01-05T01:51:25.249Z,100969.36
2019-01-05T01:53:58.228Z,100964.87
2019-01-05T01:56:37.506Z,100957.70
2019-01-05T01:59:06.858Z,100958.87
2019-01-05T02:01:39.809Z,100949.33
2019-01-05T02:04:23.052Z,100939.63
2019-01-05T02:07:06.275Z,100944.20
2019-01-05T02:09:50.410Z,100937.55
2019-01-05T02:12:35.516Z,100925.73
2019-01-05T02:15:09.363Z,100925.70
2019-01-05T02:17:37.810Z,100932.21
2019-01-05T02:20:13.549Z,100920.94
2019-01-05T02:22:45.290Z,100913.77
2019-01-05T02:25:20.543Z,100922.77
2019-01-05T02:28:19.203Z,100919.66
2019-01-05T02:30:53.155Z,100926.36
2019-01-05T02:33:42.773Z,100927.63
2019-01-05T02:36:16.997Z,100923.24
2019-01-05T02:39:00.952Z,100917.94
2019-01-05T02:41:38.123Z,100895.63
2019-01-05T02:47:28.175Z,100888.39
2019-01-05T02:50:22.760Z,100894.67
2019-01-05T02:53:12.374Z,100893.28
2019-01-05T02:55:51.355Z,100891.20
2019-01-05T02:58:50.003Z,100889.88
2019-01-05T03:01:51.018Z,100895.14
2019-01-05T03:04:27.381Z,100879.95
2019-01-05T03:07:18.847Z,100883.23
2019-01-05T03:10:10.610Z,100879.84
2019-01-05T03:12:46.566Z,100874.27
2019-01-05T03:15:33.540Z,100875.19
2019-01-05T03:18:23.909Z,100865.20
2019-01-05T03:21:10.177Z,100872.70
2019-01-05T03:23:51.689Z,100849.51
2019-01-05T03:26:47.735Z,100851.03
2019-01-05T03:29:23.114Z,100845.36
2019-01-05T03:32:21.212Z,100843.13
2019-01-05T03:35:29.967Z,100841.77
2019-01-05T03:38:05.212Z,100841.91
2019-01-05T03:40:55.206Z,100849.34
2019-01-05T03:43:43.808Z,100846.92
2019-01-05T03:46:51.535Z,100853.47
2019-01-05T03:49:49.222Z,100853.34
2019-01-05T03:52:24.480Z,100844.27
2019-01-05T03:55:02.555Z,100828.91
2019-01-05T03:57:35.673Z,100828.15
2019-01-05T04:00:19.754Z,100811.69
2019-01-05T04:02:59.849Z,100819.16
2019-01-05T04:05:29.167Z,100807.02
2019-01-05T04:08:23.294Z,100810.21
2019-01-05T04:10:56.520Z,100791.06
2019-01-05T04:14:00.245Z,100777.94
2019-01-05T04:16:49.691Z,100777.92
2019-01-05T04:19:37.742Z,100773.47
2019-01-05T04:25:18.530Z,100777.00
2019-01-05T04:28:16.452Z,100779.45
2019-01-05T04:34:12.911Z,100773.41
2019-01-05T04:37:06.487Z,100762.33
2019-01-05T04:39:40.590Z,100761.80
2019-01-05T04:42:12.126Z,100760.01
2019-01-05T04:45:04.320Z,100760.09
2019-01-05T04:47:40.998Z,100756.75
2019-01-05T04:50:31.996Z,100755.17
2019-01-05T04:53:39.515Z,100752.97
2019-01-05T04:56:17.422Z,100739.27
2019-01-05T04:59:06.054Z,100731.53
2019-01-05T05:01:53.041Z,100726.08
2019-01-05T05:04:40.717Z,100727.27
2019-01-05T05:07:35.405Z,100730.26
2019-01-05T05:10:34.339Z,100728.37
2019-01-05T05:13:26.775Z,100729.02
2019-01-05T05:16:06.998Z,100726.98
2019-01-05T05:18:54.000Z,100734.84
2019-01-05T05:21:47.152Z,100733.28
2019-01-05T05:24:34.468Z,100732.00
2019-01-05T05:27:21.451Z,100733.44
2019-01-05T05:30:13.425Z,100731.82
2019-01-05T05:33:04.001Z,100736.22
2019-01-05T05:35:52.008Z,100725.88
2019-01-05T05:38:43.954Z,100723.02
2019-01-05T05:41:30.103Z,100714.65
2019-01-05T05:44:08.079Z,100718.24
2019-01-05T05:47:18.783Z,100722.27
2019-01-05T05:49:54.847Z,100730.02
2019-01-05T05:53:02.639Z,118397.28
2019-01-05T05:55:52.569Z,118397.28
2019-01-05T05:58:42.191Z,118397.28
2019-01-05T06:01:35.275Z,118397.28
